sensor_id;sensor_type;location;lat;lon;timestamp;temperature;humidity
39931;DHT22;26635;-35.248;149.138;2023-09-08T00:00:54;11.50;73.00
39931;DHT22;26635;-35.248;149.138;2023-09-08T00:03:27;11.60;71.60
39931;DHT22;26635;-35.248;149.138;2023-09-08T00:06:00;11.70;71.50
39931;DHT22;26635;-35.248;149.138;2023-09-08T00:08:30;11.70;71.70
39931;DHT22;26635;-35.248;149.138;2023-09-08T00:11:01;11.70;70.70
39931;DHT22;26635;-35.248;149.138;2023-09-08T00:13:31;11.70;70.10
39931;DHT22;26635;-35.248;149.138;2023-09-08T00:16:02;11.70;70.50
39931;DHT22;26635;-35.248;149.138;2023-09-08T00:18:33;11.70;69.60
39931;DHT22;26635;-35.248;149.138;2023-09-08T00:21:04;11.70;70.50
39931;DHT22;26635;-35.248;149.138;2023-09-08T00:23:34;11.80;70.10
39931;DHT22;26635;-35.248;149.138;2023-09-08T00:26:05;12.00;70.20
39931;DHT22;26635;-35.248;149.138;2023-09-08T00:28:36;11.90;70.70
39931;DHT22;26635;-35.248;149.138;2023-09-08T00:31:06;11.90;69.40
39931;DHT22;26635;-35.248;149.138;2023-09-08T00:33:37;12.10;71.00
39931;DHT22;26635;-35.248;149.138;2023-09-08T00:36:11;12.10;71.40
39931;DHT22;26635;-35.248;149.138;2023-09-08T00:38:41;12.10;71.50
39931;DHT22;26635;-35.248;149.138;2023-09-08T00:41:12;12.30;72.00
39931;DHT22;26635;-35.248;149.138;2023-09-08T00:43:42;12.40;72.90
39931;DHT22;26635;-35.248;149.138;2023-09-08T00:46:13;12.60;71.40
39931;DHT22;26635;-35.248;149.138;2023-09-08T00:48:43;12.80;72.30
39931;DHT22;26635;-35.248;149.138;2023-09-08T00:51:14;12.90;71.40
39931;DHT22;26635;-35.248;149.138;2023-09-08T00:53:44;12.80;71.80
39931;DHT22;26635;-35.248;149.138;2023-09-08T00:56:15;12.80;71.00
39931;DHT22;26635;-35.248;149.138;2023-09-08T00:58:46;12.60;70.60
39931;DHT22;26635;-35.248;149.138;2023-09-08T01:01:22;12.40;71.50
39931;DHT22;26635;-35.248;149.138;2023-09-08T01:03:53;12.40;73.30
39931;DHT22;26635;-35.248;149.138;2023-09-08T01:06:24;12.30;72.40
39931;DHT22;26635;-35.248;149.138;2023-09-08T01:08:55;12.30;72.40
39931;DHT22;26635;-35.248;149.138;2023-09-08T01:11:26;12.20;73.80
39931;DHT22;26635;-35.248;149.138;2023-09-08T01:13:57;12.20;74.20
39931;DHT22;26635;-35.248;149.138;2023-09-08T01:16:30;12.20;73.00
39931;DHT22;26635;-35.248;149.138;2023-09-08T01:19:04;12.30;75.10
39931;DHT22;26635;-35.248;149.138;2023-09-08T01:21:48;12.30;73.80
39931;DHT22;26635;-35.248;149.138;2023-09-08T01:27:10;12.10;74.70
39931;DHT22;26635;-35.248;149.138;2023-09-08T01:29:53;11.90;75.10
39931;DHT22;26635;-35.248;149.138;2023-09-08T01:32:25;11.80;75.50
39931;DHT22;26635;-35.248;149.138;2023-09-08T01:34:58;11.70;76.50
39931;DHT22;26635;-35.248;149.138;2023-09-08T01:37:30;11.60;76.90
39931;DHT22;26635;-35.248;149.138;2023-09-08T01:40:01;11.60;77.70
39931;DHT22;26635;-35.248;149.138;2023-09-08T01:42:34;11.70;78.80
39931;DHT22;26635;-35.248;149.138;2023-09-08T01:45:05;12.00;78.60
39931;DHT22;26635;-35.248;149.138;2023-09-08T01:47:37;12.10;77.80
39931;DHT22;26635;-35.248;149.138;2023-09-08T01:50:08;12.30;77.40
39931;DHT22;26635;-35.248;149.138;2023-09-08T01:52:39;12.50;77.40
39931;DHT22;26635;-35.248;149.138;2023-09-08T01:55:11;12.60;76.60
39931;DHT22;26635;-35.248;149.138;2023-09-08T01:57:42;12.50;76.20
39931;DHT22;26635;-35.248;149.138;2023-09-08T02:00:13;12.60;76.30
39931;DHT22;26635;-35.248;149.138;2023-09-08T02:02:43;12.60;75.80
39931;DHT22;26635;-35.248;149.138;2023-09-08T02:05:15;12.60;74.80
39931;DHT22;26635;-35.248;149.138;2023-09-08T02:07:46;12.50;75.00
39931;DHT22;26635;-35.248;149.138;2023-09-08T02:10:16;12.30;74.40
39931;DHT22;26635;-35.248;149.138;2023-09-08T02:12:49;12.20;76.00
39931;DHT22;26635;-35.248;149.138;2023-09-08T02:15:19;12.30;75.90
39931;DHT22;26635;-35.248;149.138;2023-09-08T02:17:53;12.40;75.20
39931;DHT22;26635;-35.248;149.138;2023-09-08T02:20:28;12.40;75.60
39931;DHT22;26635;-35.248;149.138;2023-09-08T02:23:05;12.30;76.20
39931;DHT22;26635;-35.248;149.138;2023-09-08T02:25:36;12.30;77.50
39931;DHT22;26635;-35.248;149.138;2023-09-08T02:28:09;12.30;77.90
39931;DHT22;26635;-35.248;149.138;2023-09-08T02:30:40;12.40;77.70
39931;DHT22;26635;-35.248;149.138;2023-09-08T02:33:11;12.40;76.10
39931;DHT22;26635;-35.248;149.138;2023-09-08T02:35:41;12.30;76.90
39931;DHT22;26635;-35.248;149.138;2023-09-08T02:38:14;12.20;77.50
39931;DHT22;26635;-35.248;149.138;2023-09-08T02:40:55;12.20;79.50
39931;DHT22;26635;-35.248;149.138;2023-09-08T02:43:25;12.10;77.80
39931;DHT22;26635;-35.248;149.138;2023-09-08T02:45:57;12.00;78.80
39931;DHT22;26635;-35.248;149.138;2023-09-08T02:48:29;11.80;79.40
39931;DHT22;26635;-35.248;149.138;2023-09-08T02:51:01;11.80;80.60
39931;DHT22;26635;-35.248;149.138;2023-09-08T02:53:32;11.80;80.30
39931;DHT22;26635;-35.248;149.138;2023-09-08T02:56:05;11.80;80.10
39931;DHT22;26635;-35.248;149.138;2023-09-08T02:58:36;11.90;80.10
39931;DHT22;26635;-35.248;149.138;2023-09-08T03:01:17;11.80;78.60
39931;DHT22;26635;-35.248;149.138;2023-09-08T03:03:50;11.80;79.30
39931;DHT22;26635;-35.248;149.138;2023-09-08T03:06:22;11.90;79.30
39931;DHT22;26635;-35.248;149.138;2023-09-08T03:08:52;11.80;79.70
39931;DHT22;26635;-35.248;149.138;2023-09-08T03:11:23;11.80;80.40
39931;DHT22;26635;-35.248;149.138;2023-09-08T03:13:53;12.00;80.60
39931;DHT22;26635;-35.248;149.138;2023-09-08T03:16:24;12.00;79.20
39931;DHT22;26635;-35.248;149.138;2023-09-08T03:18:54;12.00;80.60
39931;DHT22;26635;-35.248;149.138;2023-09-08T03:21:25;12.00;79.30
39931;DHT22;26635;-35.248;149.138;2023-09-08T03:23:58;12.10;79.20
39931;DHT22;26635;-35.248;149.138;2023-09-08T03:26:28;12.30;78.90
39931;DHT22;26635;-35.248;149.138;2023-09-08T03:28:59;12.30;78.20
39931;DHT22;26635;-35.248;149.138;2023-09-08T03:31:29;12.20;78.50
39931;DHT22;26635;-35.248;149.138;2023-09-08T03:34:02;12.30;78.50
39931;DHT22;26635;-35.248;149.138;2023-09-08T03:36:32;12.30;77.40
39931;DHT22;26635;-35.248;149.138;2023-09-08T03:39:05;12.30;77.60
39931;DHT22;26635;-35.248;149.138;2023-09-08T03:41:39;12.40;78.80
39931;DHT22;26635;-35.248;149.138;2023-09-08T03:44:10;12.40;78.80
39931;DHT22;26635;-35.248;149.138;2023-09-08T03:46:43;12.40;77.90
39931;DHT22;26635;-35.248;149.138;2023-09-08T03:49:15;12.40;77.90
39931;DHT22;26635;-35.248;149.138;2023-09-08T03:51:46;12.40;78.90
39931;DHT22;26635;-35.248;149.138;2023-09-08T03:54:17;12.40;77.90
39931;DHT22;26635;-35.248;149.138;2023-09-08T03:56:48;12.30;76.40
39931;DHT22;26635;-35.248;149.138;2023-09-08T03:59:18;12.20;78.40
39931;DHT22;26635;-35.248;149.138;2023-09-08T04:01:48;12.30;78.30
39931;DHT22;26635;-35.248;149.138;2023-09-08T04:04:19;12.20;77.00
39931;DHT22;26635;-35.248;149.138;2023-09-08T04:06:49;12.20;77.50
39931;DHT22;26635;-35.248;149.138;2023-09-08T04:09:21;12.20;77.50
39931;DHT22;26635;-35.248;149.138;2023-09-08T04:11:51;12.10;77.40
39931;DHT22;26635;-35.248;149.138;2023-09-08T04:14:22;12.10;79.00
39931;DHT22;26635;-35.248;149.138;2023-09-08T04:16:58;12.10;80.50
39931;DHT22;26635;-35.248;149.138;2023-09-08T04:19:29;12.30;79.60
39931;DHT22;26635;-35.248;149.138;2023-09-08T04:22:00;12.30;77.60
39931;DHT22;26635;-35.248;149.138;2023-09-08T04:24:35;12.30;76.40
39931;DHT22;26635;-35.248;149.138;2023-09-08T04:27:06;12.50;78.60
39931;DHT22;26635;-35.248;149.138;2023-09-08T04:29:42;12.60;75.90
39931;DHT22;26635;-35.248;149.138;2023-09-08T04:32:12;12.70;77.40
39931;DHT22;26635;-35.248;149.138;2023-09-08T04:34:43;12.70;75.80
39931;DHT22;26635;-35.248;149.138;2023-09-08T04:37:13;12.80;75.60
39931;DHT22;26635;-35.248;149.138;2023-09-08T04:39:45;12.80;77.20
39931;DHT22;26635;-35.248;149.138;2023-09-08T04:42:16;12.70;76.60
39931;DHT22;26635;-35.248;149.138;2023-09-08T04:44:47;12.70;76.40
39931;DHT22;26635;-35.248;149.138;2023-09-08T04:47:18;12.70;75.80
39931;DHT22;26635;-35.248;149.138;2023-09-08T04:49:49;12.70;76.30
39931;DHT22;26635;-35.248;149.138;2023-09-08T04:52:22;12.70;76.10
39931;DHT22;26635;-35.248;149.138;2023-09-08T04:54:53;12.70;77.20
39931;DHT22;26635;-35.248;149.138;2023-09-08T04:57:23;12.80;76.00
39931;DHT22;26635;-35.248;149.138;2023-09-08T04:59:55;12.70;75.00
39931;DHT22;26635;-35.248;149.138;2023-09-08T05:02:26;12.60;75.10
39931;DHT22;26635;-35.248;149.138;2023-09-08T05:04:58;12.40;76.40
39931;DHT22;26635;-35.248;149.138;2023-09-08T05:07:30;12.50;76.20
39931;DHT22;26635;-35.248;149.138;2023-09-08T05:10:01;12.50;75.90
39931;DHT22;26635;-35.248;149.138;2023-09-08T05:12:31;12.50;74.60
39931;DHT22;26635;-35.248;149.138;2023-09-08T05:15:01;12.50;74.50
39931;DHT22;26635;-35.248;149.138;2023-09-08T05:17:36;12.30;74.60
39931;DHT22;26635;-35.248;149.138;2023-09-08T05:20:08;12.30;74.60
39931;DHT22;26635;-35.248;149.138;2023-09-08T05:22:39;12.10;75.70
39931;DHT22;26635;-35.248;149.138;2023-09-08T05:25:10;12.00;76.50
39931;DHT22;26635;-35.248;149.138;2023-09-08T05:27:40;12.00;76.20
39931;DHT22;26635;-35.248;149.138;2023-09-08T05:30:12;11.80;76.50
39931;DHT22;26635;-35.248;149.138;2023-09-08T05:32:43;11.70;78.30
39931;DHT22;26635;-35.248;149.138;2023-09-08T05:35:15;11.40;78.70
39931;DHT22;26635;-35.248;149.138;2023-09-08T05:37:46;11.20;79.40
39931;DHT22;26635;-35.248;149.138;2023-09-08T05:40:16;11.10;79.30
39931;DHT22;26635;-35.248;149.138;2023-09-08T05:42:48;11.10;80.30
39931;DHT22;26635;-35.248;149.138;2023-09-08T05:45:19;11.10;79.40
39931;DHT22;26635;-35.248;149.138;2023-09-08T05:47:49;11.10;78.70
39931;DHT22;26635;-35.248;149.138;2023-09-08T05:50:20;11.20;79.10
39931;DHT22;26635;-35.248;149.138;2023-09-08T05:52:51;11.30;78.20
39931;DHT22;26635;-35.248;149.138;2023-09-08T05:55:22;11.30;77.80
39931;DHT22;26635;-35.248;149.138;2023-09-08T05:57:53;11.30;78.80
39931;DHT22;26635;-35.248;149.138;2023-09-08T06:00:23;11.30;77.60
39931;DHT22;26635;-35.248;149.138;2023-09-08T06:02:53;11.30;78.10
39931;DHT22;26635;-35.248;149.138;2023-09-08T06:05:24;11.20;78.80
39931;DHT22;26635;-35.248;149.138;2023-09-08T06:07:54;11.10;79.80
39931;DHT22;26635;-35.248;149.138;2023-09-08T06:10:34;11.00;80.30
39931;DHT22;26635;-35.248;149.138;2023-09-08T06:13:05;11.00;79.40
39931;DHT22;26635;-35.248;149.138;2023-09-08T06:15:35;11.00;79.20
39931;DHT22;26635;-35.248;149.138;2023-09-08T06:18:06;11.00;79.90
39931;DHT22;26635;-35.248;149.138;2023-09-08T06:20:36;11.10;80.00
39931;DHT22;26635;-35.248;149.138;2023-09-08T06:23:07;11.10;78.30
39931;DHT22;26635;-35.248;149.138;2023-09-08T06:25:37;11.10;76.90
39931;DHT22;26635;-35.248;149.138;2023-09-08T06:28:08;11.10;77.50
39931;DHT22;26635;-35.248;149.138;2023-09-08T06:30:38;11.10;77.00
39931;DHT22;26635;-35.248;149.138;2023-09-08T06:33:11;11.20;76.50
39931;DHT22;26635;-35.248;149.138;2023-09-08T06:35:42;11.00;76.60
39931;DHT22;26635;-35.248;149.138;2023-09-08T06:38:12;10.90;77.50
39931;DHT22;26635;-35.248;149.138;2023-09-08T06:40:44;10.90;78.00
39931;DHT22;26635;-35.248;149.138;2023-09-08T06:43:25;10.90;78.40
39931;DHT22;26635;-35.248;149.138;2023-09-08T06:46:23;10.90;78.90
39931;DHT22;26635;-35.248;149.138;2023-09-08T06:48:53;10.80;78.20
39931;DHT22;26635;-35.248;149.138;2023-09-08T06:51:25;10.70;78.70
39931;DHT22;26635;-35.248;149.138;2023-09-08T06:53:57;10.70;79.90
39931;DHT22;26635;-35.248;149.138;2023-09-08T06:56:31;10.70;80.70
39931;DHT22;26635;-35.248;149.138;2023-09-08T06:59:02;10.60;80.30
39931;DHT22;26635;-35.248;149.138;2023-09-08T07:01:33;10.50;80.80
39931;DHT22;26635;-35.248;149.138;2023-09-08T07:04:04;10.50;81.00
39931;DHT22;26635;-35.248;149.138;2023-09-08T07:06:36;10.50;81.50
39931;DHT22;26635;-35.248;149.138;2023-09-08T07:09:08;10.40;81.50
39931;DHT22;26635;-35.248;149.138;2023-09-08T07:11:38;10.20;81.00
39931;DHT22;26635;-35.248;149.138;2023-09-08T07:14:08;10.20;81.10
39931;DHT22;26635;-35.248;149.138;2023-09-08T07:16:39;10.10;81.40
39931;DHT22;26635;-35.248;149.138;2023-09-08T07:19:11;10.00;81.50
39931;DHT22;26635;-35.248;149.138;2023-09-08T07:21:41;10.00;82.00
39931;DHT22;26635;-35.248;149.138;2023-09-08T07:24:12;10.00;82.00
39931;DHT22;26635;-35.248;149.138;2023-09-08T07:26:44;9.90;82.40
39931;DHT22;26635;-35.248;149.138;2023-09-08T07:29:14;9.90;81.80
39931;DHT22;26635;-35.248;149.138;2023-09-08T07:31:44;9.90;82.00
39931;DHT22;26635;-35.248;149.138;2023-09-08T07:34:15;9.90;82.30
39931;DHT22;26635;-35.248;149.138;2023-09-08T07:36:45;9.90;82.50
39931;DHT22;26635;-35.248;149.138;2023-09-08T07:39:17;9.80;83.40
39931;DHT22;26635;-35.248;149.138;2023-09-08T07:41:48;9.80;82.70
39931;DHT22;26635;-35.248;149.138;2023-09-08T07:44:18;9.80;83.10
39931;DHT22;26635;-35.248;149.138;2023-09-08T07:46:49;9.80;83.50
39931;DHT22;26635;-35.248;149.138;2023-09-08T07:49:20;9.80;84.10
39931;DHT22;26635;-35.248;149.138;2023-09-08T07:51:51;9.80;83.50
39931;DHT22;26635;-35.248;149.138;2023-09-08T07:54:21;9.90;83.60
39931;DHT22;26635;-35.248;149.138;2023-09-08T07:56:52;9.80;83.00
39931;DHT22;26635;-35.248;149.138;2023-09-08T07:59:22;9.80;83.10
39931;DHT22;26635;-35.248;149.138;2023-09-08T08:01:52;9.80;85.00
39931;DHT22;26635;-35.248;149.138;2023-09-08T08:04:24;9.70;84.30
39931;DHT22;26635;-35.248;149.138;2023-09-08T08:06:54;9.70;84.50
39931;DHT22;26635;-35.248;149.138;2023-09-08T08:09:26;9.70;84.30
39931;DHT22;26635;-35.248;149.138;2023-09-08T08:11:57;9.70;84.00
39931;DHT22;26635;-35.248;149.138;2023-09-08T08:14:28;9.70;85.10
39931;DHT22;26635;-35.248;149.138;2023-09-08T08:16:59;9.70;84.70
39931;DHT22;26635;-35.248;149.138;2023-09-08T08:19:29;9.70;85.20
39931;DHT22;26635;-35.248;149.138;2023-09-08T08:22:00;9.60;84.90
39931;DHT22;26635;-35.248;149.138;2023-09-08T08:24:30;9.50;84.80
39931;DHT22;26635;-35.248;149.138;2023-09-08T08:27:00;9.50;85.30
39931;DHT22;26635;-35.248;149.138;2023-09-08T08:29:32;9.50;85.20
39931;DHT22;26635;-35.248;149.138;2023-09-08T08:32:03;9.40;85.80
39931;DHT22;26635;-35.248;149.138;2023-09-08T08:34:33;9.40;86.10
39931;DHT22;26635;-35.248;149.138;2023-09-08T08:37:04;9.40;86.50
39931;DHT22;26635;-35.248;149.138;2023-09-08T08:39:34;9.30;86.10
39931;DHT22;26635;-35.248;149.138;2023-09-08T08:42:09;9.30;86.20
39931;DHT22;26635;-35.248;149.138;2023-09-08T08:44:40;9.30;86.20
39931;DHT22;26635;-35.248;149.138;2023-09-08T08:47:13;9.30;86.80
39931;DHT22;26635;-35.248;149.138;2023-09-08T08:49:44;9.30;87.00
39931;DHT22;26635;-35.248;149.138;2023-09-08T08:52:16;9.30;86.80
39931;DHT22;26635;-35.248;149.138;2023-09-08T08:54:47;9.20;86.90
39931;DHT22;26635;-35.248;149.138;2023-09-08T08:57:18;9.30;87.00
39931;DHT22;26635;-35.248;149.138;2023-09-08T08:59:50;9.20;85.80
39931;DHT22;26635;-35.248;149.138;2023-09-08T09:02:26;9.20;86.50
39931;DHT22;26635;-35.248;149.138;2023-09-08T09:04:58;9.20;86.90
39931;DHT22;26635;-35.248;149.138;2023-09-08T09:07:29;9.20;84.20
39931;DHT22;26635;-35.248;149.138;2023-09-08T09:10:00;9.20;85.30
39931;DHT22;26635;-35.248;149.138;2023-09-08T09:12:31;9.30;84.10
39931;DHT22;26635;-35.248;149.138;2023-09-08T09:15:03;9.30;83.30
39931;DHT22;26635;-35.248;149.138;2023-09-08T09:17:34;9.30;83.20
39931;DHT22;26635;-35.248;149.138;2023-09-08T09:20:18;9.40;83.40
39931;DHT22;26635;-35.248;149.138;2023-09-08T09:22:50;9.40;82.90
39931;DHT22;26635;-35.248;149.138;2023-09-08T09:25:26;9.40;83.30
39931;DHT22;26635;-35.248;149.138;2023-09-08T09:28:00;9.50;83.20
39931;DHT22;26635;-35.248;149.138;2023-09-08T09:30:51;9.50;82.60
39931;DHT22;26635;-35.248;149.138;2023-09-08T09:33:24;9.50;82.60
39931;DHT22;26635;-35.248;149.138;2023-09-08T09:35:55;9.60;82.10
39931;DHT22;26635;-35.248;149.138;2023-09-08T09:38:27;9.60;81.60
39931;DHT22;26635;-35.248;149.138;2023-09-08T09:40:58;9.60;81.70
39931;DHT22;26635;-35.248;149.138;2023-09-08T09:43:29;9.60;82.10
39931;DHT22;26635;-35.248;149.138;2023-09-08T09:46:00;9.60;81.10
39931;DHT22;26635;-35.248;149.138;2023-09-08T09:48:31;9.60;80.90
39931;DHT22;26635;-35.248;149.138;2023-09-08T09:51:19;9.60;80.70
39931;DHT22;26635;-35.248;149.138;2023-09-08T09:53:50;9.50;82.00
39931;DHT22;26635;-35.248;149.138;2023-09-08T09:56:22;9.50;81.20
39931;DHT22;26635;-35.248;149.138;2023-09-08T09:58:53;9.60;81.20
39931;DHT22;26635;-35.248;149.138;2023-09-08T10:01:25;9.50;80.20
39931;DHT22;26635;-35.248;149.138;2023-09-08T10:03:57;9.50;80.00
39931;DHT22;26635;-35.248;149.138;2023-09-08T10:06:28;9.50;80.30
39931;DHT22;26635;-35.248;149.138;2023-09-08T10:09:00;9.50;79.70
39931;DHT22;26635;-35.248;149.138;2023-09-08T10:11:48;9.50;80.80
39931;DHT22;26635;-35.248;149.138;2023-09-08T10:14:19;9.50;80.30
39931;DHT22;26635;-35.248;149.138;2023-09-08T10:16:53;9.50;79.80
39931;DHT22;26635;-35.248;149.138;2023-09-08T10:19:27;9.50;80.50
39931;DHT22;26635;-35.248;149.138;2023-09-08T10:22:01;9.50;79.60
39931;DHT22;26635;-35.248;149.138;2023-09-08T10:24:34;9.50;80.20
39931;DHT22;26635;-35.248;149.138;2023-09-08T10:27:11;9.50;80.00
39931;DHT22;26635;-35.248;149.138;2023-09-08T10:29:43;9.40;80.00
39931;DHT22;26635;-35.248;149.138;2023-09-08T10:32:16;9.40;79.70
39931;DHT22;26635;-35.248;149.138;2023-09-08T10:34:48;9.40;80.00
39931;DHT22;26635;-35.248;149.138;2023-09-08T10:37:25;9.40;79.90
39931;DHT22;26635;-35.248;149.138;2023-09-08T10:40:22;9.40;80.60
39931;DHT22;26635;-35.248;149.138;2023-09-08T10:43:08;9.30;81.50
39931;DHT22;26635;-35.248;149.138;2023-09-08T10:45:40;9.20;81.80
39931;DHT22;26635;-35.248;149.138;2023-09-08T10:48:14;9.10;82.30
39931;DHT22;26635;-35.248;149.138;2023-09-08T10:50:45;9.10;83.40
39931;DHT22;26635;-35.248;149.138;2023-09-08T10:53:19;9.10;84.90
39931;DHT22;26635;-35.248;149.138;2023-09-08T10:55:53;9.10;85.30
39931;DHT22;26635;-35.248;149.138;2023-09-08T10:58:48;9.00;84.40
39931;DHT22;26635;-35.248;149.138;2023-09-08T11:01:22;9.00;84.30
39931;DHT22;26635;-35.248;149.138;2023-09-08T11:03:59;8.90;84.80
39931;DHT22;26635;-35.248;149.138;2023-09-08T11:06:38;9.00;84.20
39931;DHT22;26635;-35.248;149.138;2023-09-08T11:09:09;8.90;83.80
39931;DHT22;26635;-35.248;149.138;2023-09-08T11:11:39;8.90;84.60
39931;DHT22;26635;-35.248;149.138;2023-09-08T11:14:09;8.90;84.00
39931;DHT22;26635;-35.248;149.138;2023-09-08T11:16:40;8.90;83.30
39931;DHT22;26635;-35.248;149.138;2023-09-08T11:19:10;9.00;83.60
39931;DHT22;26635;-35.248;149.138;2023-09-08T11:21:42;9.00;83.70
39931;DHT22;26635;-35.248;149.138;2023-09-08T11:24:12;9.00;83.80
39931;DHT22;26635;-35.248;149.138;2023-09-08T11:26:44;9.00;84.20
39931;DHT22;26635;-35.248;149.138;2023-09-08T11:29:16;9.00;83.80
39931;DHT22;26635;-35.248;149.138;2023-09-08T11:31:53;9.00;82.90
39931;DHT22;26635;-35.248;149.138;2023-09-08T11:34:23;9.10;83.90
39931;DHT22;26635;-35.248;149.138;2023-09-08T11:36:54;9.00;83.30
39931;DHT22;26635;-35.248;149.138;2023-09-08T11:39:24;9.00;83.50
39931;DHT22;26635;-35.248;149.138;2023-09-08T11:41:55;9.10;84.30
39931;DHT22;26635;-35.248;149.138;2023-09-08T11:44:27;9.10;83.90
39931;DHT22;26635;-35.248;149.138;2023-09-08T11:46:57;9.00;84.10
39931;DHT22;26635;-35.248;149.138;2023-09-08T11:49:40;9.00;85.50
39931;DHT22;26635;-35.248;149.138;2023-09-08T11:52:11;9.00;87.10
39931;DHT22;26635;-35.248;149.138;2023-09-08T11:54:41;9.00;88.00
39931;DHT22;26635;-35.248;149.138;2023-09-08T11:57:32;8.80;89.80
39931;DHT22;26635;-35.248;149.138;2023-09-08T12:00:04;8.70;90.50
39931;DHT22;26635;-35.248;149.138;2023-09-08T12:02:36;8.60;90.40
39931;DHT22;26635;-35.248;149.138;2023-09-08T12:05:10;8.60;90.80
39931;DHT22;26635;-35.248;149.138;2023-09-08T12:07:42;8.50;90.50
39931;DHT22;26635;-35.248;149.138;2023-09-08T12:10:12;8.40;89.60
39931;DHT22;26635;-35.248;149.138;2023-09-08T12:12:45;8.40;88.70
39931;DHT22;26635;-35.248;149.138;2023-09-08T12:15:35;8.30;88.40
39931;DHT22;26635;-35.248;149.138;2023-09-08T12:18:10;8.20;90.00
39931;DHT22;26635;-35.248;149.138;2023-09-08T12:20:42;8.20;90.30
39931;DHT22;26635;-35.248;149.138;2023-09-08T12:23:21;8.10;90.40
39931;DHT22;26635;-35.248;149.138;2023-09-08T12:25:52;8.10;90.40
39931;DHT22;26635;-35.248;149.138;2023-09-08T12:28:23;8.10;89.50
39931;DHT22;26635;-35.248;149.138;2023-09-08T12:30:54;8.00;90.50
39931;DHT22;26635;-35.248;149.138;2023-09-08T12:33:26;8.00;89.80
39931;DHT22;26635;-35.248;149.138;2023-09-08T12:35:56;8.00;90.30
39931;DHT22;26635;-35.248;149.138;2023-09-08T12:38:37;7.90;90.00
39931;DHT22;26635;-35.248;149.138;2023-09-08T12:41:07;7.90;89.10
39931;DHT22;26635;-35.248;149.138;2023-09-08T12:43:37;7.80;90.10
39931;DHT22;26635;-35.248;149.138;2023-09-08T12:46:09;7.80;90.50
39931;DHT22;26635;-35.248;149.138;2023-09-08T12:48:40;7.80;90.20
39931;DHT22;26635;-35.248;149.138;2023-09-08T12:51:10;7.80;90.70
39931;DHT22;26635;-35.248;149.138;2023-09-08T12:53:41;7.70;90.50
39931;DHT22;26635;-35.248;149.138;2023-09-08T12:56:11;7.70;90.50
39931;DHT22;26635;-35.248;149.138;2023-09-08T12:58:42;7.70;90.70
39931;DHT22;26635;-35.248;149.138;2023-09-08T13:01:12;7.70;90.90
39931;DHT22;26635;-35.248;149.138;2023-09-08T13:03:44;7.70;91.10
39931;DHT22;26635;-35.248;149.138;2023-09-08T13:06:15;7.70;90.70
39931;DHT22;26635;-35.248;149.138;2023-09-08T13:08:45;7.70;91.00
39931;DHT22;26635;-35.248;149.138;2023-09-08T13:11:15;7.60;90.90
39931;DHT22;26635;-35.248;149.138;2023-09-08T13:13:46;7.60;91.00
39931;DHT22;26635;-35.248;149.138;2023-09-08T13:16:16;7.60;90.70
39931;DHT22;26635;-35.248;149.138;2023-09-08T13:18:46;7.60;91.20
39931;DHT22;26635;-35.248;149.138;2023-09-08T13:21:18;7.70;91.00
39931;DHT22;26635;-35.248;149.138;2023-09-08T13:23:49;7.60;90.70
39931;DHT22;26635;-35.248;149.138;2023-09-08T13:26:19;7.70;91.00
39931;DHT22;26635;-35.248;149.138;2023-09-08T13:28:49;7.60;91.00
39931;DHT22;26635;-35.248;149.138;2023-09-08T13:31:20;7.60;91.10
39931;DHT22;26635;-35.248;149.138;2023-09-08T13:33:51;7.60;91.50
39931;DHT22;26635;-35.248;149.138;2023-09-08T13:36:22;7.50;91.30
39931;DHT22;26635;-35.248;149.138;2023-09-08T13:38:52;7.50;91.50
39931;DHT22;26635;-35.248;149.138;2023-09-08T13:41:23;7.50;91.10
39931;DHT22;26635;-35.248;149.138;2023-09-08T13:43:53;7.50;91.20
39931;DHT22;26635;-35.248;149.138;2023-09-08T13:46:23;7.40;91.50
39931;DHT22;26635;-35.248;149.138;2023-09-08T13:48:54;7.40;91.50
39931;DHT22;26635;-35.248;149.138;2023-09-08T13:51:26;7.40;91.60
39931;DHT22;26635;-35.248;149.138;2023-09-08T13:53:58;7.40;91.70
39931;DHT22;26635;-35.248;149.138;2023-09-08T13:56:30;7.40;91.80
39931;DHT22;26635;-35.248;149.138;2023-09-08T13:59:04;7.40;91.50
39931;DHT22;26635;-35.248;149.138;2023-09-08T14:01:37;7.40;91.50
39931;DHT22;26635;-35.248;149.138;2023-09-08T14:04:13;7.50;91.00
39931;DHT22;26635;-35.248;149.138;2023-09-08T14:06:45;7.40;91.20
39931;DHT22;26635;-35.248;149.138;2023-09-08T14:09:25;7.40;91.20
39931;DHT22;26635;-35.248;149.138;2023-09-08T14:12:01;7.40;91.30
39931;DHT22;26635;-35.248;149.138;2023-09-08T14:14:34;7.30;91.60
39931;DHT22;26635;-35.248;149.138;2023-09-08T14:17:04;7.30;91.50
39931;DHT22;26635;-35.248;149.138;2023-09-08T14:19:35;7.20;91.60
39931;DHT22;26635;-35.248;149.138;2023-09-08T14:22:06;7.20;91.90
39931;DHT22;26635;-35.248;149.138;2023-09-08T14:24:36;7.20;92.00
39931;DHT22;26635;-35.248;149.138;2023-09-08T14:27:07;7.20;91.90
39931;DHT22;26635;-35.248;149.138;2023-09-08T14:29:37;7.20;91.90
39931;DHT22;26635;-35.248;149.138;2023-09-08T14:32:07;7.20;91.70
39931;DHT22;26635;-35.248;149.138;2023-09-08T14:34:38;7.20;91.40
39931;DHT22;26635;-35.248;149.138;2023-09-08T14:37:08;7.10;91.40
39931;DHT22;26635;-35.248;149.138;2023-09-08T14:39:40;7.10;91.50
39931;DHT22;26635;-35.248;149.138;2023-09-08T14:42:10;7.10;92.00
39931;DHT22;26635;-35.248;149.138;2023-09-08T14:44:41;7.00;92.20
39931;DHT22;26635;-35.248;149.138;2023-09-08T14:47:11;7.10;91.70
39931;DHT22;26635;-35.248;149.138;2023-09-08T14:49:42;7.10;91.80
39931;DHT22;26635;-35.248;149.138;2023-09-08T14:52:12;7.10;91.80
39931;DHT22;26635;-35.248;149.138;2023-09-08T14:54:43;7.10;91.50
39931;DHT22;26635;-35.248;149.138;2023-09-08T14:57:13;7.00;91.50
39931;DHT22;26635;-35.248;149.138;2023-09-08T14:59:44;7.10;91.70
39931;DHT22;26635;-35.248;149.138;2023-09-08T15:02:14;7.00;91.80
39931;DHT22;26635;-35.248;149.138;2023-09-08T15:04:45;7.00;91.90
39931;DHT22;26635;-35.248;149.138;2023-09-08T15:07:15;7.00;91.80
39931;DHT22;26635;-35.248;149.138;2023-09-08T15:09:46;7.00;91.80
39931;DHT22;26635;-35.248;149.138;2023-09-08T15:12:17;7.00;91.60
39931;DHT22;26635;-35.248;149.138;2023-09-08T15:14:48;6.90;91.70
39931;DHT22;26635;-35.248;149.138;2023-09-08T15:17:18;6.80;92.20
39931;DHT22;26635;-35.248;149.138;2023-09-08T15:19:49;6.80;92.20
39931;DHT22;26635;-35.248;149.138;2023-09-08T15:22:19;6.80;92.20
39931;DHT22;26635;-35.248;149.138;2023-09-08T15:24:50;6.80;92.20
39931;DHT22;26635;-35.248;149.138;2023-09-08T15:27:21;6.70;92.20